createdAt,value
2022-10-20T00:00:07.305Z,7.60
2022-10-20T00:01:07.387Z,5.30
2022-10-20T00:02:08.085Z,4.30
2022-10-20T00:03:07.306Z,5.60
2022-10-20T00:04:08.187Z,5.70
2022-10-20T00:05:07.257Z,4.00
2022-10-20T00:06:07.292Z,5.00
2022-10-20T00:07:07.288Z,6.00
2022-10-20T00:08:08.018Z,3.90
2022-10-20T00:09:07.267Z,5.00
2022-10-20T00:10:07.172Z,5.20
2022-10-20T00:11:07.255Z,3.80
2022-10-20T00:12:07.096Z,4.90
2022-10-20T00:13:07.182Z,4.60
2022-10-20T00:14:07.124Z,5.40
2022-10-20T00:15:07.119Z,4.40
2022-10-20T00:16:07.126Z,3.90
2022-10-20T00:17:07.036Z,4.50
2022-10-20T00:18:07.244Z,4.80
2022-10-20T00:19:07.394Z,4.00
2022-10-20T00:20:07.219Z,4.40
2022-10-20T00:21:07.012Z,6.50
2022-10-20T00:22:07.002Z,4.10
2022-10-20T00:23:06.981Z,6.50
2022-10-20T00:24:06.980Z,6.70
2022-10-20T00:25:06.968Z,4.70
2022-10-20T00:26:07.002Z,3.60
2022-10-20T00:27:06.964Z,7.70
2022-10-20T00:28:06.982Z,5.20
2022-10-20T00:29:06.927Z,6.20
2022-10-20T00:30:06.880Z,4.40
2022-10-20T00:31:06.902Z,5.30
2022-10-20T00:32:06.879Z,4.40
2022-10-20T00:33:06.938Z,4.70
2022-10-20T00:34:06.921Z,3.80
2022-10-20T00:35:06.993Z,6.40
2022-10-20T00:36:06.801Z,6.80
2022-10-20T00:37:06.810Z,6.30
2022-10-20T00:38:06.799Z,6.10
2022-10-20T00:39:06.783Z,5.80
2022-10-20T00:40:06.741Z,5.10
2022-10-20T00:41:06.893Z,5.40
2022-10-20T00:42:06.721Z,4.20
2022-10-20T00:43:06.764Z,4.70
2022-10-20T00:44:06.676Z,4.40
2022-10-20T00:45:06.653Z,3.70
2022-10-20T00:46:06.684Z,5.00
2022-10-20T00:47:06.688Z,4.30
2022-10-20T00:48:06.655Z,4.60
2022-10-20T00:49:06.691Z,6.20
2022-10-20T00:50:06.675Z,3.20
2022-10-20T00:51:06.626Z,6.10
2022-10-20T00:52:06.658Z,6.10
2022-10-20T00:53:06.563Z,4.30
2022-10-20T00:54:06.544Z,5.90
2022-10-20T00:55:06.560Z,5.20
2022-10-20T00:56:06.611Z,3.20
2022-10-20T00:57:06.532Z,6.30
2022-10-20T00:58:06.623Z,5.60
2022-10-20T00:59:06.692Z,5.50
2022-10-20T01:00:06.471Z,5.30
2022-10-20T01:01:06.462Z,5.20
2022-10-20T01:02:06.566Z,3.50
2022-10-20T01:03:06.427Z,4.00
2022-10-20T01:04:06.459Z,5.80
2022-10-20T01:05:06.438Z,5.40
2022-10-20T01:06:06.435Z,6.90
2022-10-20T01:07:06.363Z,6.80
2022-10-20T01:08:06.464Z,4.80
2022-10-20T01:09:06.684Z,4.70
2022-10-20T01:10:06.371Z,5.00
2022-10-20T01:11:06.299Z,5.50
2022-10-20T01:12:06.326Z,4.60
2022-10-20T01:13:06.345Z,5.80
2022-10-20T01:14:06.257Z,4.80
2022-10-20T01:15:06.307Z,4.40
2022-10-20T01:16:06.317Z,4.50
2022-10-20T01:17:06.266Z,5.00
2022-10-20T01:18:06.196Z,3.50
2022-10-20T01:19:06.226Z,4.70
2022-10-20T01:20:06.158Z,5.90
2022-10-20T01:21:06.173Z,3.40
2022-10-20T01:22:06.148Z,3.80
2022-10-20T01:23:06.128Z,4.80
2022-10-20T01:24:06.125Z,3.40
2022-10-20T01:25:06.112Z,3.90
2022-10-20T01:26:06.126Z,4.30
2022-10-20T01:27:06.098Z,4.80
2022-10-20T01:28:06.084Z,4.50
2022-10-20T01:29:06.182Z,5.30
2022-10-20T01:30:06.110Z,5.70
2022-10-20T01:31:06.977Z,5.90
2022-10-20T01:32:06.001Z,3.40
2022-10-20T01:33:06.008Z,3.20
2022-10-20T01:34:06.029Z,5.10
2022-10-20T01:35:06.001Z,4.90
2022-10-20T01:36:05.930Z,3.60
2022-10-20T01:37:05.961Z,3.30
2022-10-20T01:38:05.980Z,4.20
2022-10-20T01:39:05.900Z,4.50
2022-10-20T01:40:05.946Z,6.50
2022-10-20T01:41:06.612Z,5.30
2022-10-20T01:42:05.969Z,6.30
2022-10-20T01:43:05.884Z,4.30
2022-10-20T01:44:05.855Z,5.50
2022-10-20T01:45:05.853Z,5.60
2022-10-20T01:46:05.816Z,4.50
2022-10-20T01:47:05.842Z,5.40
2022-10-20T01:48:05.852Z,5.30
2022-10-20T01:49:05.834Z,4.90
2022-10-20T01:50:05.780Z,5.60
2022-10-20T01:51:06.574Z,4.30
2022-10-20T01:52:05.734Z,5.10
2022-10-20T01:53:05.757Z,5.10
2022-10-20T01:54:05.748Z,4.30
2022-10-20T01:55:05.703Z,3.70
2022-10-20T01:56:05.780Z,4.50
2022-10-20T01:57:05.653Z,3.40
2022-10-20T01:58:05.633Z,6.20
2022-10-20T01:59:05.693Z,5.70
2022-10-20T02:00:05.659Z,3.60
2022-10-20T02:01:05.719Z,6.20
2022-10-20T02:02:05.622Z,4.90
2022-10-20T02:03:05.607Z,3.90
2022-10-20T02:04:05.639Z,4.00
2022-10-20T02:05:05.535Z,7.00
2022-10-20T02:06:05.582Z,5.30
2022-10-20T02:07:05.620Z,5.50
2022-10-20T02:08:05.504Z,6.10
2022-10-20T02:09:05.588Z,4.50
2022-10-20T02:10:05.506Z,9.60
2022-10-20T02:11:05.805Z,5.30
2022-10-20T02:12:05.520Z,4.50
2022-10-20T02:13:06.295Z,4.60
2022-10-20T02:14:05.434Z,4.50
2022-10-20T02:15:05.797Z,4.30
2022-10-20T02:16:05.555Z,4.70
2022-10-20T02:17:05.596Z,5.80
2022-10-20T02:18:05.609Z,4.70
2022-10-20T02:19:06.188Z,6.20
2022-10-20T02:20:05.821Z,3.80
2022-10-20T02:21:06.098Z,4.60
2022-10-20T02:22:05.424Z,3.50
2022-10-20T02:23:05.819Z,5.40
2022-10-20T02:24:05.838Z,4.60
2022-10-20T02:25:06.789Z,5.30
2022-10-20T02:26:06.414Z,5.20
2022-10-20T02:27:05.718Z,5.20
2022-10-20T02:28:05.349Z,3.90
2022-10-20T02:29:05.294Z,5.00
2022-10-20T02:30:06.469Z,3.90
2022-10-20T02:31:05.307Z,5.40
2022-10-20T02:32:05.359Z,5.70
2022-10-20T02:33:05.666Z,5.20
2022-10-20T02:34:05.854Z,4.10
2022-10-20T02:35:06.791Z,4.20
2022-10-20T02:36:05.702Z,5.40
2022-10-20T02:37:05.315Z,6.20
2022-10-20T02:38:05.352Z,5.40
2022-10-20T02:39:06.551Z,5.10
2022-10-20T02:40:05.152Z,6.00
2022-10-20T02:41:06.230Z,3.70
2022-10-20T02:42:05.982Z,5.20
2022-10-20T02:43:05.130Z,4.90
2022-10-20T02:44:05.152Z,4.10
2022-10-20T02:45:06.251Z,6.80
2022-10-20T02:46:06.916Z,6.20
2022-10-20T02:47:06.709Z,4.20
2022-10-20T02:48:07.599Z,4.10
2022-10-20T02:49:05.176Z,4.30
2022-10-20T02:50:05.792Z,5.80
2022-10-20T02:51:04.941Z,6.20
2022-10-20T02:52:05.334Z,7.90
2022-10-20T02:53:05.028Z,5.60
2022-10-20T02:54:05.209Z,4.80
2022-10-20T02:55:06.008Z,5.30
2022-10-20T02:56:05.669Z,4.90
2022-10-20T02:57:04.920Z,5.30
2022-10-20T02:58:06.052Z,5.30
2022-10-20T02:59:06.107Z,4.70
2022-10-20T03:00:07.986Z,6.30
2022-10-20T03:01:04.952Z,6.20
2022-10-20T03:02:06.773Z,5.20
2022-10-20T03:03:04.861Z,5.00
2022-10-20T03:04:06.039Z,5.40
2022-10-20T03:05:05.177Z,4.60
2022-10-20T03:06:04.802Z,5.90
2022-10-20T03:07:05.721Z,6.90
2022-10-20T03:08:04.916Z,7.60
2022-10-20T03:09:05.635Z,5.20
2022-10-20T03:10:04.924Z,7.00
2022-10-20T03:11:04.870Z,7.50
2022-10-20T03:12:04.940Z,5.50
2022-10-20T03:13:04.736Z,6.40
2022-10-20T03:14:04.637Z,7.90
2022-10-20T03:15:05.489Z,6.80
2022-10-20T03:16:06.114Z,7.60
2022-10-20T03:17:04.673Z,9.20
2022-10-20T03:18:06.040Z,7.40
2022-10-20T03:19:07.141Z,7.10
2022-10-20T03:20:04.575Z,9.60
2022-10-20T03:21:04.850Z,10.30
2022-10-20T03:22:05.551Z,9.70
2022-10-20T03:23:04.786Z,7.50
2022-10-20T03:24:04.874Z,7.30
2022-10-20T03:25:04.515Z,7.50
2022-10-20T03:26:04.623Z,6.90
2022-10-20T03:27:05.299Z,7.40
2022-10-20T03:28:04.931Z,6.70
2022-10-20T03:29:04.492Z,6.70
2022-10-20T03:30:04.538Z,7.50
2022-10-20T03:31:04.608Z,8.90
2022-10-20T03:32:05.196Z,5.90
2022-10-20T03:33:04.764Z,7.10
2022-10-20T03:34:04.395Z,6.70
2022-10-20T03:35:04.339Z,5.80
2022-10-20T03:36:04.425Z,8.30
2022-10-20T03:37:04.312Z,6.70
2022-10-20T03:38:05.288Z,7.40
2022-10-20T03:39:04.629Z,8.50
2022-10-20T03:40:04.556Z,7.70
2022-10-20T03:41:04.431Z,7.70
2022-10-20T03:42:05.223Z,6.80
2022-10-20T03:43:04.686Z,8.70
2022-10-20T03:44:04.788Z,7.40
2022-10-20T03:45:04.297Z,6.30
2022-10-20T03:46:04.256Z,5.90
2022-10-20T03:47:05.011Z,10.00
2022-10-20T03:48:04.159Z,10.00
2022-10-20T03:49:04.178Z,8.80
2022-10-20T03:51:04.588Z,9.20
2022-10-20T03:52:04.181Z,10.20
2022-10-20T03:53:04.079Z,10.20
2022-10-20T03:54:04.594Z,9.50
2022-10-20T03:55:04.100Z,8.30
2022-10-20T03:56:04.044Z,8.40
2022-10-20T03:57:06.991Z,8.80
2022-10-20T03:58:04.050Z,7.00
2022-10-20T04:00:04.033Z,7.30
2022-10-20T04:01:03.967Z,10.40
2022-10-20T04:02:04.078Z,8.40
2022-10-20T04:03:04.000Z,9.30
2022-10-20T04:04:03.975Z,7.00
2022-10-20T04:05:03.942Z,10.00
2022-10-20T04:06:03.900Z,9.10
2022-10-20T04:07:03.941Z,9.10
2022-10-20T04:08:03.975Z,10.60
2022-10-20T04:09:06.158Z,11.50
2022-10-20T04:10:04.113Z,8.70
2022-10-20T04:11:04.002Z,10.40
2022-10-20T04:12:03.862Z,9.70
2022-10-20T04:13:06.370Z,8.60
2022-10-20T04:14:03.879Z,8.60
2022-10-20T04:15:03.787Z,10.70
2022-10-20T04:16:04.486Z,8.80
2022-10-20T04:17:03.782Z,8.60
2022-10-20T04:18:03.911Z,9.90
2022-10-20T04:19:03.859Z,9.70
2022-10-20T04:20:04.188Z,12.00
2022-10-20T04:21:03.719Z,11.90
2022-10-20T04:22:03.669Z,17.20
2022-10-20T04:23:03.677Z,12.50
2022-10-20T04:24:03.740Z,15.20
2022-10-20T04:25:03.650Z,9.80
2022-10-20T04:26:04.527Z,14.80
2022-10-20T04:27:03.677Z,15.50
2022-10-20T04:28:03.642Z,12.60
2022-10-20T04:29:03.675Z,12.20
2022-10-20T04:30:03.675Z,9.70
2022-10-20T04:31:03.660Z,11.50
2022-10-20T04:32:03.637Z,10.10
2022-10-20T04:33:04.102Z,15.90
2022-10-20T04:34:03.925Z,12.30
2022-10-20T04:35:03.606Z,14.10
2022-10-20T04:36:03.497Z,11.40
2022-10-20T04:37:03.905Z,14.40
2022-10-20T04:38:03.549Z,9.80
2022-10-20T04:39:03.608Z,11.60
2022-10-20T04:40:03.557Z,12.30
2022-10-20T04:41:04.268Z,13.10
2022-10-20T04:42:03.427Z,9.60
2022-10-20T04:43:03.508Z,13.80
2022-10-20T04:44:03.468Z,10.20
2022-10-20T04:45:03.429Z,11.60
2022-10-20T04:46:07.066Z,11.90
2022-10-20T04:47:04.450Z,11.40
2022-10-20T04:48:03.338Z,13.60
2022-10-20T04:49:03.357Z,14.00
2022-10-20T04:50:03.450Z,13.50
2022-10-20T04:51:03.380Z,12.40
2022-10-20T04:52:03.519Z,12.80
2022-10-20T04:53:03.286Z,14.60
2022-10-20T04:54:03.236Z,14.90
2022-10-20T04:55:03.550Z,14.60
2022-10-20T04:56:03.202Z,16.40
2022-10-20T04:57:03.300Z,18.10
2022-10-20T04:58:03.279Z,16.30
2022-10-20T04:59:03.244Z,15.20
2022-10-20T05:00:03.862Z,12.10
2022-10-20T05:01:03.210Z,17.60
2022-10-20T05:02:03.281Z,14.40
2022-10-20T05:03:03.193Z,11.40
2022-10-20T05:04:03.371Z,12.90
2022-10-20T05:05:03.100Z,16.50
2022-10-20T05:06:03.089Z,13.40
2022-10-20T05:07:03.722Z,13.30
2022-10-20T05:08:03.081Z,13.30
2022-10-20T05:09:03.237Z,12.40
2022-10-20T05:10:03.101Z,12.80
2022-10-20T05:11:03.208Z,10.40
2022-10-20T05:12:03.042Z,18.60
2022-10-20T05:13:03.451Z,11.90
2022-10-20T05:14:04.832Z,14.50
2022-10-20T05:15:03.200Z,16.70
2022-10-20T05:16:03.662Z,12.40
2022-10-20T05:17:05.256Z,11.10
2022-10-20T05:18:04.291Z,21.20
2022-10-20T05:19:03.483Z,14.60
2022-10-20T05:20:03.555Z,21.20
2022-10-20T05:21:09.074Z,12.60
2022-10-20T05:22:04.276Z,18.90
2022-10-20T05:23:03.361Z,16.10
2022-10-20T05:24:02.861Z,17.10
2022-10-20T05:25:24.409Z,14.10
2022-10-20T05:26:03.964Z,17.10
2022-10-20T05:27:03.553Z,12.20
2022-10-20T05:28:04.258Z,16.30
2022-10-20T05:29:02.991Z,12.70
2022-10-20T05:30:03.243Z,16.80
2022-10-20T05:31:02.801Z,14.20
2022-10-20T05:32:03.427Z,13.90
2022-10-20T05:33:02.885Z,17.70
2022-10-20T05:34:03.349Z,12.10
2022-10-20T05:35:02.746Z,18.10
2022-10-20T05:36:02.825Z,15.70
2022-10-20T05:37:02.659Z,13.80
2022-10-20T05:38:02.631Z,18.30
2022-10-20T05:39:02.648Z,13.90
2022-10-20T05:40:02.703Z,17.80
2022-10-20T05:41:02.781Z,12.00
2022-10-20T05:42:02.635Z,16.50
2022-10-20T05:43:02.718Z,13.50
2022-10-20T05:44:02.807Z,16.70
2022-10-20T05:45:02.581Z,15.40
2022-10-20T05:46:02.521Z,20.50
2022-10-20T05:47:02.549Z,21.60
2022-10-20T05:48:03.118Z,13.10
2022-10-20T05:49:02.588Z,22.40
2022-10-20T05:50:02.948Z,13.80
2022-10-20T05:51:02.718Z,19.30
2022-10-20T05:52:03.129Z,16.10
2022-10-20T05:53:03.249Z,16.20
2022-10-20T05:54:03.096Z,20.20
2022-10-20T05:55:02.579Z,19.90
2022-10-20T05:56:02.707Z,14.00
2022-10-20T05:57:02.699Z,14.80
2022-10-20T05:58:02.508Z,19.60
2022-10-20T05:59:02.541Z,14.30
2022-10-20T06:00:03.434Z,16.90
2022-10-20T06:01:03.269Z,15.60
2022-10-20T06:02:02.602Z,17.80
2022-10-20T06:03:03.309Z,16.00
2022-10-20T06:04:03.170Z,12.50
2022-10-20T06:05:02.604Z,16.00
2022-10-20T06:06:02.429Z,14.50
2022-10-20T06:07:02.881Z,13.10
2022-10-20T06:08:02.300Z,14.20
2022-10-20T06:09:02.919Z,16.80
2022-10-20T06:10:02.235Z,13.10
2022-10-20T06:11:02.893Z,16.00
2022-10-20T06:12:02.721Z,16.80
2022-10-20T06:13:02.321Z,16.00
2022-10-20T06:14:02.630Z,14.50
2022-10-20T06:15:02.971Z,15.10
2022-10-20T06:16:03.571Z,14.70
2022-10-20T06:17:02.672Z,12.70
2022-10-20T06:18:02.073Z,11.50
2022-10-20T06:19:03.020Z,14.90
2022-10-20T06:20:02.430Z,13.80
2022-10-20T06:21:02.630Z,13.30
2022-10-20T06:22:05.490Z,14.40
2022-10-20T06:23:02.134Z,15.70
2022-10-20T06:24:02.059Z,13.50
2022-10-20T06:25:02.025Z,13.40
2022-10-20T06:26:02.124Z,15.00
2022-10-20T06:27:02.093Z,15.60
2022-10-20T06:28:02.022Z,12.20
2022-10-20T06:29:04.705Z,12.20
2022-10-20T06:30:01.897Z,13.80
2022-10-20T06:31:02.104Z,9.50
2022-10-20T06:32:01.972Z,15.30
2022-10-20T06:33:01.977Z,13.80
2022-10-20T06:34:01.947Z,14.10
2022-10-20T06:35:01.827Z,8.50
2022-10-20T06:36:02.036Z,10.10
2022-10-20T06:37:02.664Z,10.60
2022-10-20T06:38:01.823Z,7.50
2022-10-20T06:39:01.804Z,10.60
2022-10-20T06:40:01.737Z,11.50
2022-10-20T06:41:02.579Z,7.80
2022-10-20T06:42:01.735Z,10.30
2022-10-20T06:43:01.719Z,10.20
2022-10-20T06:44:01.935Z,8.70
2022-10-20T06:45:01.763Z,8.00
2022-10-20T06:46:01.814Z,9.80
2022-10-20T06:47:01.642Z,10.50
2022-10-20T06:48:01.705Z,7.90
2022-10-20T06:49:01.628Z,9.50
2022-10-20T06:50:01.805Z,9.50
2022-10-20T06:51:01.689Z,10.20
2022-10-20T06:52:01.770Z,7.40
2022-10-20T06:53:01.620Z,8.90
2022-10-20T06:54:01.597Z,7.30
2022-10-20T06:55:01.697Z,11.20
2022-10-20T06:56:02.427Z,7.00
2022-10-20T06:57:01.588Z,8.30
2022-10-20T06:58:01.571Z,7.90
2022-10-20T06:59:01.541Z,8.80
2022-10-20T07:00:01.480Z,9.20
2022-10-20T07:01:02.648Z,9.40
2022-10-20T07:02:01.533Z,7.20
2022-10-20T07:03:01.601Z,9.40
2022-10-20T07:04:01.477Z,8.70
2022-10-20T07:05:01.448Z,9.20
2022-10-20T07:06:01.430Z,10.60
2022-10-20T07:07:01.403Z,8.10
2022-10-20T07:08:02.278Z,9.30
2022-10-20T07:09:01.555Z,7.40
2022-10-20T07:10:01.389Z,8.70
2022-10-20T07:11:01.360Z,6.50
2022-10-20T07:12:02.769Z,8.20
2022-10-20T07:13:01.301Z,6.40
2022-10-20T07:14:01.443Z,6.20
2022-10-20T07:15:01.309Z,7.40
2022-10-20T07:16:01.570Z,6.20
2022-10-20T07:17:01.304Z,7.30
2022-10-20T07:18:01.333Z,7.00
2022-10-20T07:19:01.469Z,7.40
2022-10-20T07:20:01.619Z,5.90
2022-10-20T07:21:01.292Z,6.80
2022-10-20T07:22:01.508Z,6.30
2022-10-20T07:23:01.301Z,6.40
2022-10-20T07:24:01.165Z,5.30
2022-10-20T07:25:01.245Z,6.30
2022-10-20T07:26:02.085Z,5.80
2022-10-20T07:27:01.708Z,4.80
2022-10-20T07:28:02.290Z,6.50
2022-10-20T07:29:01.300Z,4.90
2022-10-20T07:30:01.353Z,4.60
2022-10-20T07:31:01.194Z,4.10
2022-10-20T07:32:02.243Z,4.70
2022-10-20T07:33:01.147Z,4.80
2022-10-20T07:34:12.933Z,6.30
2022-10-20T07:35:02.748Z,6.20
2022-10-20T07:36:02.730Z,4.60
2022-10-20T07:37:01.234Z,5.40
2022-10-20T07:38:01.206Z,4.90
2022-10-20T07:39:01.237Z,6.40
2022-10-20T07:40:01.645Z,6.00
2022-10-20T07:41:01.863Z,5.40
2022-10-20T07:42:01.122Z,7.10
2022-10-20T07:43:00.930Z,4.30
2022-10-20T07:44:00.956Z,4.10
2022-10-20T07:45:01.064Z,3.80
2022-10-20T07:46:01.366Z,5.90
2022-10-20T07:47:01.087Z,4.10
2022-10-20T07:48:01.067Z,5.40
2022-10-20T07:49:24.035Z,4.40
2022-10-20T07:50:02.011Z,5.60
2022-10-20T07:51:00.927Z,5.00
2022-10-20T07:52:01.039Z,4.50
2022-10-20T07:53:01.005Z,6.50
2022-10-20T07:54:00.906Z,5.60
2022-10-20T07:55:12.478Z,4.60
2022-10-20T07:56:02.079Z,3.90
2022-10-20T07:57:00.970Z,6.10
2022-10-20T07:58:00.930Z,5.20
2022-10-20T07:59:00.941Z,5.50
2022-10-20T08:00:01.701Z,4.70
2022-10-20T08:01:01.090Z,3.40
2022-10-20T08:02:01.372Z,4.30
2022-10-20T08:03:00.899Z,4.60
2022-10-20T08:04:00.985Z,3.80
2022-10-20T08:05:00.636Z,3.80
2022-10-20T08:06:00.604Z,5.00
2022-10-20T08:07:00.533Z,4.10
2022-10-20T08:08:00.631Z,4.70
2022-10-20T08:09:00.522Z,4.70
2022-10-20T08:10:00.492Z,4.30
2022-10-20T08:11:00.553Z,5.10
2022-10-20T08:12:00.489Z,3.10
2022-10-20T08:13:00.448Z,3.00
2022-10-20T08:14:00.423Z,3.20
2022-10-20T08:15:00.584Z,4.20
2022-10-20T08:16:02.103Z,4.80
2022-10-20T08:17:07.374Z,2.80
2022-10-20T08:18:00.417Z,4.20
2022-10-20T08:19:01.914Z,4.20
2022-10-20T08:20:03.562Z,4.50
2022-10-20T08:21:00.405Z,3.60
2022-10-20T08:22:00.304Z,4.90
2022-10-20T08:23:00.305Z,4.20
2022-10-20T08:24:00.285Z,5.80
2022-10-20T08:25:00.339Z,3.60
2022-10-20T08:26:00.419Z,3.60
2022-10-20T08:27:00.238Z,3.80
2022-10-20T08:28:00.286Z,3.90
2022-10-20T08:29:00.366Z,4.60
2022-10-20T08:30:22.502Z,4.30
2022-10-20T08:31:01.506Z,4.00
2022-10-20T08:32:00.166Z,5.30
2022-10-20T08:33:00.200Z,2.90
2022-10-20T08:34:01.699Z,3.50
2022-10-20T08:35:00.138Z,4.40
2022-10-20T08:36:00.402Z,3.10
2022-10-20T08:37:00.117Z,5.30
2022-10-20T08:38:00.066Z,5.40
2022-10-20T08:39:03.512Z,8.10
2022-10-20T08:40:01.279Z,5.60
2022-10-20T08:41:00.089Z,5.50
2022-10-20T08:42:08.935Z,5.00
2022-10-20T08:43:01.523Z,3.30
2022-10-20T08:43:59.992Z,6.50
2022-10-20T08:45:00.975Z,3.90
2022-10-20T08:46:00.026Z,3.20
2022-10-20T08:47:00.134Z,3.20
2022-10-20T08:48:01.564Z,3.90
2022-10-20T08:49:00.122Z,4.60
2022-10-20T08:49:59.919Z,4.70
2022-10-20T08:51:00.163Z,3.60
2022-10-20T08:52:00.025Z,4.40
2022-10-20T08:52:59.902Z,3.20
2022-10-20T08:53:59.934Z,3.70
2022-10-20T08:55:00.221Z,3.60
2022-10-20T08:56:00.753Z,4.80
2022-10-20T08:57:00.017Z,3.80
2022-10-20T08:57:59.901Z,3.50
2022-10-20T08:58:59.953Z,3.60
2022-10-20T09:00:00.025Z,3.20
2022-10-20T09:01:00.164Z,5.00
2022-10-20T09:02:00.025Z,3.90
2022-10-20T09:03:02.886Z,5.10
2022-10-20T09:04:06.380Z,5.00
2022-10-20T09:05:02.125Z,3.00
2022-10-20T09:06:00.693Z,4.70
2022-10-20T09:06:59.904Z,3.10
2022-10-20T09:07:59.856Z,4.20
2022-10-20T09:09:00.602Z,4.40
2022-10-20T09:10:00.734Z,4.50
2022-10-20T09:10:59.883Z,4.40
2022-10-20T09:11:59.755Z,5.00
2022-10-20T09:13:00.020Z,3.00
2022-10-20T09:14:00.599Z,3.50
2022-10-20T09:14:59.628Z,5.60
2022-10-20T09:16:00.490Z,5.10
2022-10-20T09:17:01.107Z,4.20
2022-10-20T09:17:59.516Z,3.70
2022-10-20T09:18:59.517Z,5.30
2022-10-20T09:19:59.528Z,5.30
2022-10-20T09:20:59.484Z,3.00
2022-10-20T09:21:59.520Z,2.60
2022-10-20T09:23:01.338Z,3.40
2022-10-20T09:24:00.209Z,6.00
2022-10-20T09:24:59.509Z,3.30
2022-10-20T09:25:59.449Z,5.80
2022-10-20T09:27:00.229Z,3.70
2022-10-20T09:27:59.440Z,6.60
2022-10-20T09:29:12.535Z,4.90
2022-10-20T09:30:00.417Z,4.10
2022-10-20T09:30:59.372Z,6.40
2022-10-20T09:32:07.735Z,3.30
2022-10-20T09:33:00.602Z,3.50
2022-10-20T09:33:59.360Z,4.10
2022-10-20T09:34:59.279Z,3.60
2022-10-20T09:35:59.333Z,4.00
2022-10-20T09:36:59.264Z,6.90
2022-10-20T09:37:59.535Z,3.90
2022-10-20T09:38:59.348Z,4.70
2022-10-20T09:39:59.406Z,3.70
2022-10-20T09:40:59.456Z,4.60
2022-10-20T09:41:59.468Z,4.30
2022-10-20T09:42:59.414Z,6.00
2022-10-20T09:43:59.182Z,3.80
2022-10-20T09:44:59.488Z,4.90
2022-10-20T09:45:59.455Z,5.50
2022-10-20T09:46:59.374Z,4.30
2022-10-20T09:47:59.155Z,4.40
2022-10-20T09:48:59.160Z,3.90
2022-10-20T09:50:01.117Z,3.70
2022-10-20T09:50:59.151Z,3.30
2022-10-20T09:51:59.076Z,4.70
2022-10-20T09:52:59.221Z,10.80
2022-10-20T09:53:59.146Z,3.30
2022-10-20T09:54:59.176Z,3.40
2022-10-20T09:55:59.338Z,4.20
2022-10-20T09:56:59.119Z,3.60
2022-10-20T09:57:59.337Z,3.10
2022-10-20T09:58:59.065Z,2.50
2022-10-20T10:00:01.377Z,4.10
2022-10-20T10:01:00.162Z,3.20
2022-10-20T10:01:59.074Z,4.00
2022-10-20T10:02:59.158Z,4.90
2022-10-20T10:03:59.010Z,3.20
2022-10-20T10:04:59.153Z,4.80
2022-10-20T10:05:59.071Z,3.80
2022-10-20T10:06:58.946Z,3.60
2022-10-20T10:07:59.145Z,2.80
2022-10-20T10:08:59.311Z,2.80
2022-10-20T10:10:00.393Z,2.70
2022-10-20T10:10:59.057Z,2.90
2022-10-20T10:11:58.875Z,2.90
2022-10-20T10:12:59.772Z,2.90
2022-10-20T10:13:59.507Z,3.50
2022-10-20T10:14:59.787Z,3.60
2022-10-20T10:15:58.727Z,3.50
2022-10-20T10:16:58.693Z,3.90
2022-10-20T10:17:59.742Z,6.90
2022-10-20T10:18:59.558Z,2.50
2022-10-20T10:19:58.643Z,3.80
2022-10-20T10:20:59.598Z,3.80
2022-10-20T10:21:58.995Z,3.20
2022-10-20T10:22:59.802Z,4.10
2022-10-20T10:24:02.426Z,4.20
2022-10-20T10:24:59.878Z,4.30
2022-10-20T10:26:02.361Z,3.30
2022-10-20T10:27:02.914Z,5.70
2022-10-20T10:27:59.521Z,5.30
2022-10-20T10:29:01.566Z,5.20
2022-10-20T10:29:59.646Z,3.50
2022-10-20T10:30:58.664Z,5.50
2022-10-20T10:31:58.784Z,5.10
2022-10-20T10:32:58.748Z,3.50
2022-10-20T10:33:58.551Z,2.40
2022-10-20T10:34:58.848Z,3.20
2022-10-20T10:35:58.847Z,3.70
2022-10-20T10:37:03.318Z,5.40
2022-10-20T10:38:01.138Z,17.60
2022-10-20T10:39:00.345Z,11.80
2022-10-20T10:39:58.390Z,24.80
2022-10-20T10:40:58.619Z,34.10
2022-10-20T10:42:59.018Z,303.30
2022-10-20T10:43:58.543Z,442.90
2022-10-20T10:44:58.741Z,456.20
2022-10-20T10:45:58.332Z,357.70
2022-10-20T10:46:58.427Z,184.70
2022-10-20T10:47:58.326Z,38.80
2022-10-20T10:49:00.867Z,43.80
2022-10-20T10:51:15.787Z,133.80
2022-10-20T10:52:11.871Z,125.10
2022-10-20T10:53:11.910Z,71.50
2022-10-20T10:54:12.007Z,71.50
2022-10-20T10:55:17.346Z,16.20
2022-10-20T10:56:12.879Z,17.30
2022-10-20T10:57:12.692Z,17.30
2022-10-20T10:58:11.778Z,10.70
2022-10-20T10:59:11.809Z,13.00
2022-10-20T11:00:11.783Z,7.40
2022-10-20T11:01:11.780Z,5.40
2022-10-20T11:02:13.545Z,4.50
2022-10-20T11:03:12.187Z,3.80
2022-10-20T11:04:11.769Z,3.60
2022-10-20T11:05:11.926Z,5.00
2022-10-20T11:06:11.919Z,5.00
2022-10-20T11:07:15.741Z,4.00
2022-10-20T11:08:12.461Z,2.80
2022-10-20T11:09:12.185Z,3.70
2022-10-20T11:10:12.262Z,5.30
2022-10-20T11:11:15.790Z,3.60
2022-10-20T11:12:13.441Z,3.90
2022-10-20T11:13:14.174Z,3.60
2022-10-20T11:14:12.260Z,3.60
2022-10-20T11:15:13.909Z,4.30
2022-10-20T11:16:12.222Z,3.10
2022-10-20T11:17:11.694Z,3.70
2022-10-20T11:18:12.093Z,3.70
2022-10-20T11:19:12.612Z,3.50
2022-10-20T11:20:11.835Z,4.80
2022-10-20T11:21:12.404Z,4.90
2022-10-20T11:22:14.025Z,5.00
2022-10-20T11:23:11.585Z,3.20
2022-10-20T11:24:12.618Z,4.30
2022-10-20T11:25:11.523Z,4.40
2022-10-20T11:26:11.405Z,3.30
2022-10-20T11:27:11.482Z,3.70
2022-10-20T11:28:11.396Z,3.80
2022-10-20T11:29:11.379Z,4.80
2022-10-20T11:30:11.339Z,7.00
2022-10-20T11:31:11.861Z,4.50
2022-10-20T11:32:11.335Z,3.20
2022-10-20T11:33:11.339Z,5.70
2022-10-20T11:34:11.326Z,4.00
2022-10-20T11:35:11.277Z,5.10
2022-10-20T11:36:11.484Z,4.90
2022-10-20T11:37:11.848Z,6.10
2022-10-20T11:38:11.458Z,4.80
2022-10-20T11:39:11.521Z,7.60
2022-10-20T11:40:11.802Z,5.10
2022-10-20T11:41:11.509Z,6.90
2022-10-20T11:42:11.772Z,6.70
2022-10-20T11:43:11.306Z,5.60
2022-10-20T11:44:11.933Z,5.80
2022-10-20T11:45:11.855Z,8.90
2022-10-20T11:46:11.781Z,3.70
2022-10-20T11:47:11.671Z,7.20
2022-10-20T11:48:11.431Z,4.30
2022-10-20T11:49:11.270Z,3.00
2022-10-20T11:50:11.215Z,5.30
2022-10-20T11:51:11.394Z,6.60
2022-10-20T11:52:11.182Z,3.80
2022-10-20T11:53:11.154Z,4.00
2022-10-20T11:54:11.086Z,4.70
2022-10-20T11:55:11.870Z,3.90
2022-10-20T11:56:11.024Z,4.10
2022-10-20T11:57:10.986Z,4.30
2022-10-20T11:58:10.975Z,6.20
2022-10-20T11:59:11.958Z,5.00
2022-10-20T12:00:11.991Z,4.70
2022-10-20T12:01:11.014Z,5.40
2022-10-20T12:02:11.442Z,5.20
2022-10-20T12:03:12.413Z,3.70
2022-10-20T12:04:11.505Z,6.20
2022-10-20T12:05:12.495Z,4.90
2022-10-20T12:06:11.911Z,5.80
2022-10-20T12:07:11.179Z,5.00
2022-10-20T12:08:28.692Z,5.10
2022-10-20T12:09:12.460Z,3.40
2022-10-20T12:10:11.266Z,4.20
2022-10-20T12:11:12.289Z,4.40
2022-10-20T12:12:10.920Z,3.60
2022-10-20T12:13:10.810Z,4.40
2022-10-20T12:14:10.784Z,5.20
2022-10-20T12:15:10.840Z,5.80
2022-10-20T12:16:11.021Z,4.50
2022-10-20T12:17:10.755Z,4.00
2022-10-20T12:18:10.830Z,4.50
2022-10-20T12:19:10.858Z,4.60
2022-10-20T12:20:10.853Z,5.90
2022-10-20T12:21:10.836Z,4.10
2022-10-20T12:22:10.656Z,4.20
2022-10-20T12:23:10.739Z,3.90
2022-10-20T12:24:10.822Z,5.60
2022-10-20T12:25:10.963Z,3.30
2022-10-20T12:26:10.647Z,3.00
2022-10-20T12:27:10.783Z,3.60
2022-10-20T12:28:10.946Z,4.50
2022-10-20T12:29:10.964Z,4.50
2022-10-20T12:30:10.732Z,9.00
2022-10-20T12:31:10.699Z,6.40
2022-10-20T12:32:10.945Z,5.30
2022-10-20T12:33:10.841Z,4.60
2022-10-20T12:34:11.199Z,4.30
2022-10-20T12:35:10.665Z,7.30
2022-10-20T12:36:10.943Z,4.50
2022-10-20T12:37:10.501Z,3.80
2022-10-20T12:38:10.984Z,5.10
2022-10-20T12:39:10.679Z,4.80
2022-10-20T12:40:11.250Z,4.20
2022-10-20T12:41:10.477Z,6.00
2022-10-20T12:42:10.368Z,6.10
2022-10-20T12:43:10.363Z,7.20
2022-10-20T12:44:10.332Z,3.90
2022-10-20T12:45:10.298Z,6.10
2022-10-20T12:46:10.460Z,5.40
2022-10-20T12:47:10.283Z,3.10
2022-10-20T12:48:10.423Z,3.90
2022-10-20T12:49:12.004Z,5.90
2022-10-20T12:50:10.251Z,4.50
2022-10-20T12:51:10.633Z,4.60
2022-10-20T12:52:11.229Z,4.70
2022-10-20T12:53:10.635Z,4.20
2022-10-20T12:54:10.305Z,4.70
2022-10-20T12:55:10.176Z,6.00
2022-10-20T12:56:10.202Z,5.30
2022-10-20T12:57:10.139Z,3.70
2022-10-20T12:58:10.139Z,4.20
2022-10-20T12:59:10.138Z,5.20
2022-10-20T13:00:10.619Z,4.20
2022-10-20T13:01:10.221Z,4.20
2022-10-20T13:02:10.142Z,4.20
2022-10-20T13:03:12.535Z,3.40
2022-10-20T13:04:10.844Z,3.60
2022-10-20T13:05:10.680Z,5.20
2022-10-20T13:06:10.045Z,5.20
2022-10-20T13:07:10.105Z,6.60
2022-10-20T13:08:10.216Z,4.50
2022-10-20T13:09:10.036Z,4.00
2022-10-20T13:10:09.982Z,6.60
2022-10-20T13:11:09.938Z,3.90
2022-10-20T13:12:09.922Z,3.00
2022-10-20T13:13:10.432Z,3.50
2022-10-20T13:14:10.249Z,3.70
2022-10-20T13:15:10.913Z,3.20
2022-10-20T13:16:10.666Z,3.90